Time;durP1;ratioP1;P1;durP2;ratioP2;P2;SDS_P1;SDS_P2;PMS_P1;PMS_P2;Temp;Humidity;BMP_temperature;BMP_pressure;BME280_temperature;BME280_humidity;BME280_pressure;Samples;Min_cycle;Max_cycle;Signal;HPM_P1;HPM_P2
2021/06/26 00:00:54;;;;;;;10.27;8.13;;;15.40;99.90;;;;;;5031766;28;20025;-73
2021/06/26 00:03:27;;;;;;;10.65;8.68;;;15.40;99.90;;;;;;5000536;28;20028;-73
2021/06/26 00:05:56;;;;;;;10.55;8.68;;;15.40;99.90;;;;;;5035139;28;20044;-73
2021/06/26 00:08:22;;;;;;;11.38;8.95;;;15.40;99.90;;;;;;5030525;28;20418;-73
2021/06/26 00:10:48;;;;;;;10.05;8.15;;;15.40;99.90;;;;;;5036331;28;20036;-73
2021/06/26 00:13:17;;;;;;;11.68;8.23;;;15.40;99.90;;;;;;5036732;28;20036;-73
2021/06/26 00:15:43;;;;;;;12.63;9.23;;;15.40;99.90;;;;;;5037947;28;20067;-73
2021/06/26 00:18:11;;;;;;;10.05;8.63;;;15.30;99.90;;;;;;5042334;28;20710;-73
2021/06/26 00:20:39;;;;;;;10.38;8.05;;;15.30;99.90;;;;;;5039080;28;20083;-73
2021/06/26 00:23:04;;;;;;;10.13;8.18;;;15.30;99.90;;;;;;5036353;28;20458;-73
2021/06/26 00:25:33;;;;;;;13.00;8.50;;;15.30;99.90;;;;;;5035435;28;20156;-73
2021/06/26 00:27:59;;;;;;;10.52;8.23;;;15.30;99.90;;;;;;5037040;28;20033;-73
2021/06/26 00:30:27;;;;;;;10.75;8.18;;;15.30;99.90;;;;;;5025590;28;20041;-73
2021/06/26 00:32:53;;;;;;;11.27;8.30;;;15.30;99.90;;;;;;5039580;28;20532;-73
2021/06/26 00:35:19;;;;;;;12.13;8.60;;;15.30;99.90;;;;;;5018141;28;20470;-73
2021/06/26 00:37:45;;;;;;;10.00;8.07;;;15.30;99.90;;;;;;5038420;28;20063;-73
2021/06/26 00:40:15;;;;;;;10.50;8.10;;;15.30;99.90;;;;;;5035692;28;20020;-73
2021/06/26 00:42:42;;;;;;;9.77;8.02;;;15.30;99.90;;;;;;5026983;28;20515;-73
2021/06/26 00:45:12;;;;;;;12.23;8.00;;;15.20;99.90;;;;;;5022747;28;20474;-74
2021/06/26 00:47:43;;;;;;;10.20;7.80;;;15.20;99.90;;;;;;5039347;28;20033;-73
2021/06/26 00:50:29;;;;;;;10.68;7.57;;;15.20;99.90;;;;;;5023473;28;20028;-73
2021/06/26 00:53:00;;;;;;;10.95;7.93;;;15.20;99.90;;;;;;5039108;28;20099;-73
2021/06/26 00:55:25;;;;;;;10.68;7.22;;;15.20;99.90;;;;;;5036148;28;20029;-73
2021/06/26 00:57:58;;;;;;;11.05;7.90;;;15.20;99.90;;;;;;5039332;28;20040;-73
2021/06/26 01:00:32;;;;;;;9.52;7.25;;;15.20;99.90;;;;;;5039324;28;20035;-73
2021/06/26 01:02:58;;;;;;;9.35;7.53;;;15.20;99.90;;;;;;5026377;28;20029;-73
2021/06/26 01:05:24;;;;;;;10.43;6.88;;;15.20;99.90;;;;;;5057766;28;20029;-73
2021/06/26 01:07:52;;;;;;;11.00;7.50;;;15.20;99.90;;;;;;5034637;28;20044;-73
2021/06/26 01:10:17;;;;;;;9.90;7.30;;;15.10;99.90;;;;;;5023941;28;20029;-74
2021/06/26 01:12:47;;;;;;;9.68;7.30;;;15.10;99.90;;;;;;5044693;28;20044;-73
2021/06/26 01:15:18;;;;;;;9.02;7.32;;;15.10;99.90;;;;;;5044596;28;20088;-73
2021/06/26 01:17:44;;;;;;;8.60;7.25;;;15.10;99.90;;;;;;5041136;28;20033;-73
2021/06/26 01:20:12;;;;;;;9.18;7.07;;;15.10;99.90;;;;;;5039143;28;20040;-73
2021/06/26 01:22:45;;;;;;;9.52;7.30;;;15.00;99.90;;;;;;5037800;28;20033;-73
2021/06/26 01:25:17;;;;;;;9.35;6.82;;;15.00;99.90;;;;;;5023365;28;20049;-73
2021/06/26 01:27:45;;;;;;;10.32;7.00;;;15.00;99.90;;;;;;5037406;28;20056;-73
2021/06/26 01:30:12;;;;;;;10.10;6.97;;;14.90;99.90;;;;;;5038572;28;20128;-73
2021/06/26 01:32:40;;;;;;;8.80;6.97;;;14.90;99.90;;;;;;5038454;28;21928;-74
2021/06/26 01:35:07;;;;;;;11.52;7.05;;;14.90;99.90;;;;;;5037131;28;20044;-73
2021/06/26 01:37:37;;;;;;;11.55;8.18;;;14.80;99.90;;;;;;5020691;28;20061;-73
2021/06/26 01:40:03;;;;;;;9.13;6.90;;;14.80;99.90;;;;;;5038455;28;20026;-73
2021/06/26 01:42:31;;;;;;;8.38;6.53;;;14.80;99.90;;;;;;5038233;28;20714;-73
2021/06/26 01:45:02;;;;;;;9.45;7.00;;;14.80;99.90;;;;;;5036464;28;20067;-73
2021/06/26 01:47:27;;;;;;;9.85;6.82;;;14.70;99.90;;;;;;5038762;28;20037;-74
2021/06/26 01:49:53;;;;;;;10.85;6.80;;;14.70;99.90;;;;;;5037787;28;20069;-73
2021/06/26 01:52:21;;;;;;;11.20;7.22;;;14.70;99.90;;;;;;5038362;28;20037;-73
2021/06/26 01:54:46;;;;;;;8.60;6.90;;;14.60;99.90;;;;;;5034233;28;20048;-73
2021/06/26 01:57:14;;;;;;;9.20;6.78;;;14.60;99.90;;;;;;5038769;28;20033;-73
2021/06/26 01:59:40;;;;;;;9.30;7.00;;;14.60;99.90;;;;;;5038393;28;20033;-73
2021/06/26 02:02:06;;;;;;;12.07;8.10;;;14.60;99.90;;;;;;5039234;28;20046;-73
2021/06/26 02:04:32;;;;;;;9.80;7.30;;;14.50;99.90;;;;;;5054429;28;20039;-74
2021/06/26 02:06:59;;;;;;;8.07;6.50;;;14.50;99.90;;;;;;5032551;28;20030;-73
2021/06/26 02:09:25;;;;;;;8.15;6.63;;;14.50;99.90;;;;;;5033669;28;20091;-73
2021/06/26 02:11:54;;;;;;;7.82;6.47;;;14.50;99.90;;;;;;5037296;28;20036;-73
2021/06/26 02:14:22;;;;;;;9.98;6.90;;;14.50;99.90;;;;;;5033202;28;20031;-73
2021/06/26 02:16:49;;;;;;;8.85;6.45;;;14.50;99.90;;;;;;5034038;28;20155;-73
2021/06/26 02:19:15;;;;;;;8.05;6.50;;;14.50;99.90;;;;;;5039644;28;20029;-73
2021/06/26 02:21:43;;;;;;;11.15;6.63;;;14.40;99.90;;;;;;5038732;28;20040;-73
2021/06/26 02:24:11;;;;;;;9.27;6.50;;;14.40;99.90;;;;;;5038059;28;20050;-73
2021/06/26 02:26:37;;;;;;;11.10;6.68;;;14.40;99.90;;;;;;5035905;28;20339;-73
2021/06/26 02:29:05;;;;;;;9.20;6.93;;;14.40;99.90;;;;;;5037700;28;20033;-73
2021/06/26 02:31:31;;;;;;;16.70;6.70;;;14.40;99.90;;;;;;5033412;28;20060;-73
2021/06/26 02:33:56;;;;;;;8.07;6.38;;;14.40;99.90;;;;;;5038083;28;20447;-73
2021/06/26 02:36:24;;;;;;;8.95;7.13;;;14.40;99.90;;;;;;5038143;28;20642;-73
2021/06/26 02:38:52;;;;;;;11.60;6.80;;;14.40;99.90;;;;;;5042893;28;20083;-73
2021/06/26 02:41:22;;;;;;;9.80;6.53;;;14.40;99.90;;;;;;5038047;28;20033;-73
2021/06/26 02:43:50;;;;;;;8.75;6.50;;;14.40;99.90;;;;;;5007093;28;20040;-73
2021/06/26 02:46:15;;;;;;;9.48;6.50;;;14.40;99.90;;;;;;5036903;28;20099;-73
2021/06/26 02:48:44;;;;;;;10.25;6.80;;;14.40;99.90;;;;;;5036859;28;20037;-73
2021/06/26 02:51:09;;;;;;;9.23;6.38;;;14.30;99.90;;;;;;5038366;28;20098;-74
2021/06/26 02:53:37;;;;;;;9.35;6.38;;;14.40;99.90;;;;;;5042926;28;20032;-73
2021/06/26 02:56:06;;;;;;;9.25;6.30;;;14.40;99.90;;;;;;5032025;28;20382;-74
2021/06/26 02:58:32;;;;;;;8.05;6.10;;;14.40;99.90;;;;;;5036967;28;20029;-74
2021/06/26 03:00:57;;;;;;;8.57;6.40;;;14.30;99.90;;;;;;5038273;28;20033;-74
2021/06/26 03:03:23;;;;;;;8.88;5.82;;;14.30;99.90;;;;;;5034514;28;20446;-74
2021/06/26 03:05:51;;;;;;;9.77;6.18;;;14.30;99.90;;;;;;5039839;28;20085;-73
2021/06/26 03:08:16;;;;;;;9.90;6.70;;;14.30;99.90;;;;;;5043729;28;20064;-73
2021/06/26 03:10:42;;;;;;;8.73;6.45;;;14.30;99.90;;;;;;5033204;28;20037;-73
2021/06/26 03:13:07;;;;;;;9.00;6.47;;;14.30;99.90;;;;;;5037573;28;20037;-73
2021/06/26 03:15:35;;;;;;;8.93;5.93;;;14.30;99.90;;;;;;5038545;28;20090;-73
2021/06/26 03:18:01;;;;;;;8.45;6.35;;;14.20;99.90;;;;;;5038128;28;20039;-74
2021/06/26 03:20:26;;;;;;;8.63;6.32;;;14.30;99.90;;;;;;5038155;28;20349;-73
2021/06/26 03:22:55;;;;;;;8.43;6.30;;;14.20;99.90;;;;;;5035486;28;20121;-73
2021/06/26 03:25:20;;;;;;;8.15;6.72;;;14.20;99.90;;;;;;5036852;28;20045;-73
2021/06/26 03:27:50;;;;;;;9.85;6.95;;;14.10;99.90;;;;;;5037667;28;20952;-73
2021/06/26 03:30:22;;;;;;;8.75;7.10;;;14.10;99.90;;;;;;5034156;28;20167;-73
2021/06/26 03:32:50;;;;;;;18.55;6.93;;;14.10;99.90;;;;;;5036579;28;20040;-73
2021/06/26 03:35:20;;;;;;;9.63;6.22;;;14.10;99.90;;;;;;5036235;28;20492;-73
2021/06/26 03:37:46;;;;;;;11.50;6.93;;;14.10;99.90;;;;;;5037332;28;20479;-73
2021/06/26 03:40:12;;;;;;;9.50;6.95;;;14.00;99.90;;;;;;5036185;28;20051;-73
2021/06/26 03:42:38;;;;;;;8.77;6.60;;;14.00;99.90;;;;;;5021383;28;20370;-73
2021/06/26 03:45:05;;;;;;;8.60;6.60;;;14.00;99.90;;;;;;5033161;28;20078;-73
2021/06/26 03:47:33;;;;;;;10.60;7.03;;;14.10;99.90;;;;;;5037318;28;20043;-73
2021/06/26 03:50:01;;;;;;;10.00;7.05;;;14.10;99.90;;;;;;5039702;28;20536;-73
2021/06/26 03:52:27;;;;;;;8.40;6.43;;;14.10;99.90;;;;;;5036669;28;20215;-73
2021/06/26 03:54:52;;;;;;;9.63;6.60;;;14.10;99.90;;;;;;5040995;28;20033;-73
2021/06/26 03:57:20;;;;;;;7.93;6.28;;;14.10;99.90;;;;;;5041539;28;20135;-73
2021/06/26 03:59:51;;;;;;;8.70;7.00;;;14.10;99.90;;;;;;5039041;28;20029;-73
2021/06/26 04:02:21;;;;;;;9.73;7.00;;;14.10;99.90;;;;;;5039451;28;20360;-73
2021/06/26 04:04:47;;;;;;;9.60;6.80;;;14.10;99.90;;;;;;5037301;28;20236;-73
2021/06/26 04:07:13;;;;;;;9.05;7.28;;;14.10;99.90;;;;;;5040115;28;20041;-73
2021/06/26 04:09:41;;;;;;;8.88;6.65;;;14.10;99.90;;;;;;5040363;28;20036;-73
2021/06/26 04:12:08;;;;;;;9.20;7.00;;;14.10;99.90;;;;;;5039827;28;20411;-73
2021/06/26 04:14:33;;;;;;;8.05;6.32;;;14.10;99.90;;;;;;5039476;28;20022;-73
2021/06/26 04:16:59;;;;;;;10.77;6.72;;;14.10;99.90;;;;;;5038807;28;20083;-73
2021/06/26 04:19:24;;;;;;;8.68;6.80;;;14.10;99.90;;;;;;5039616;28;20033;-73
2021/06/26 04:21:50;;;;;;;10.20;7.00;;;14.10;99.90;;;;;;5039114;28;20044;-73
2021/06/26 04:24:18;;;;;;;10.05;7.05;;;14.10;99.90;;;;;;5039115;28;20033;-73
2021/06/26 04:26:46;;;;;;;9.07;6.95;;;14.10;99.90;;;;;;5040053;28;20017;-73
2021/06/26 04:29:16;;;;;;;10.85;7.32;;;14.10;99.90;;;;;;5040181;28;21800;-73
2021/06/26 04:31:44;;;;;;;9.75;7.55;;;14.10;99.90;;;;;;5040023;28;21873;-73
2021/06/26 04:34:09;;;;;;;7.97;6.70;;;14.10;99.90;;;;;;5040627;28;20412;-73
2021/06/26 04:36:37;;;;;;;10.35;7.57;;;14.10;99.90;;;;;;5039286;28;20040;-73
2021/06/26 04:39:07;;;;;;;9.38;7.65;;;14.10;99.90;;;;;;5024171;28;20033;-73
2021/06/26 04:41:38;;;;;;;9.38;7.22;;;14.10;99.90;;;;;;5040065;28;20082;-73
2021/06/26 04:44:07;;;;;;;9.07;6.95;;;14.10;99.90;;;;;;5038684;28;20029;-73
2021/06/26 04:46:32;;;;;;;8.40;7.15;;;14.10;99.90;;;;;;5042830;28;20668;-73
2021/06/26 04:49:05;;;;;;;10.35;7.78;;;14.10;99.90;;;;;;5007444;28;20063;-73
2021/06/26 04:51:33;;;;;;;9.30;7.55;;;14.10;99.90;;;;;;5022793;28;20094;-73
2021/06/26 04:54:01;;;;;;;8.75;7.18;;;14.10;99.90;;;;;;5042611;28;20082;-74
2021/06/26 04:56:28;;;;;;;8.98;7.28;;;14.20;99.90;;;;;;5039101;28;20108;-73
2021/06/26 04:58:57;;;;;;;11.18;8.05;;;14.20;99.90;;;;;;5039152;28;20031;-73
2021/06/26 05:01:22;;;;;;;11.85;8.02;;;14.20;99.90;;;;;;5039589;28;20017;-73
2021/06/26 05:03:48;;;;;;;10.23;7.90;;;14.20;99.90;;;;;;5040819;28;20653;-73
2021/06/26 05:06:18;;;;;;;11.35;8.65;;;14.30;99.90;;;;;;5043664;28;20047;-74
2021/06/26 05:08:46;;;;;;;13.38;9.32;;;14.30;99.90;;;;;;5041271;28;20062;-73
2021/06/26 05:11:12;;;;;;;11.82;10.13;;;14.40;99.90;;;;;;5039480;28;21513;-73
2021/06/26 05:13:40;;;;;;;15.43;11.93;;;14.40;99.90;;;;;;5038298;28;20537;-73
2021/06/26 05:16:08;;;;;;;14.63;12.43;;;14.40;99.90;;;;;;5038451;28;20032;-73
2021/06/26 05:18:34;;;;;;;21.58;15.48;;;14.40;99.90;;;;;;5042364;28;20030;-73
2021/06/26 05:20:59;;;;;;;21.08;17.10;;;14.40;99.90;;;;;;5039049;28;20418;-73
2021/06/26 05:23:31;;;;;;;20.70;16.23;;;14.50;99.90;;;;;;5038196;28;20029;-73
2021/06/26 05:25:56;;;;;;;29.25;20.17;;;14.50;99.90;;;;;;5036572;28;20068;-73
2021/06/26 05:28:22;;;;;;;22.95;18.05;;;14.50;99.90;;;;;;5054116;28;20128;-73
2021/06/26 05:30:52;;;;;;;28.60;22.05;;;14.60;99.90;;;;;;5038583;28;20305;-73
2021/06/26 05:33:20;;;;;;;29.95;22.90;;;14.60;99.90;;;;;;5038783;28;20507;-73
2021/06/26 05:35:53;;;;;;;31.13;23.40;;;14.70;99.90;;;;;;5034290;28;20151;-72
2021/06/26 05:38:21;;;;;;;30.08;23.75;;;14.70;99.90;;;;;;5053662;28;20120;-73
2021/06/26 05:40:49;;;;;;;35.00;26.10;;;14.80;99.90;;;;;;5034834;28;20051;-73
2021/06/26 05:43:19;;;;;;;36.30;26.35;;;14.80;99.90;;;;;;5041712;28;20025;-73
2021/06/26 05:45:45;;;;;;;35.45;28.52;;;14.90;99.90;;;;;;5041024;28;20044;-73
2021/06/26 05:48:12;;;;;;;38.17;29.02;;;14.90;99.90;;;;;;5024536;28;20032;-73
2021/06/26 05:50:40;;;;;;;35.13;26.23;;;15.00;99.90;;;;;;5038285;28;20508;-72
2021/06/26 05:53:08;;;;;;;40.22;29.80;;;15.00;99.90;;;;;;5033151;28;20051;-72
2021/06/26 05:55:34;;;;;;;41.30;29.35;;;15.10;99.90;;;;;;5034700;28;20033;-73
2021/06/26 05:58:02;;;;;;;36.58;28.08;;;15.10;99.90;;;;;;5042137;28;20087;-73
2021/06/26 06:00:32;;;;;;;39.97;29.77;;;15.20;99.90;;;;;;5042699;28;20112;-73
2021/06/26 06:02:58;;;;;;;36.40;28.65;;;15.30;99.90;;;;;;5037957;28;20025;-73
2021/06/26 06:05:23;;;;;;;39.25;29.15;;;15.30;99.90;;;;;;5033513;28;20035;-72
2021/06/26 06:07:49;;;;;;;34.78;27.58;;;15.40;99.90;;;;;;5037980;28;20037;-73
2021/06/26 06:10:18;;;;;;;38.00;28.63;;;15.40;99.90;;;;;;5037128;28;20351;-73
2021/06/26 06:12:43;;;;;;;37.63;28.83;;;15.50;99.90;;;;;;5034451;28;20056;-73
2021/06/26 06:15:13;;;;;;;35.33;26.73;;;15.50;99.90;;;;;;5044813;28;20174;-73
2021/06/26 06:17:44;;;;;;;36.35;28.05;;;15.60;99.90;;;;;;5016542;28;20033;-73
2021/06/26 06:20:12;;;;;;;40.78;30.25;;;15.60;99.90;;;;;;5035174;28;20366;-73
2021/06/26 06:22:37;;;;;;;34.40;26.65;;;15.70;99.90;;;;;;5036755;28;20025;-78
2021/06/26 06:25:06;;;;;;;31.88;24.90;;;15.70;99.90;;;;;;5033453;28;20049;-76
2021/06/26 06:27:31;;;;;;;33.05;25.50;;;15.80;99.90;;;;;;5033587;28;20038;-75
2021/06/26 06:29:57;;;;;;;35.97;27.10;;;15.80;99.90;;;;;;5037270;28;20037;-73
2021/06/26 06:32:23;;;;;;;33.30;24.83;;;15.90;99.90;;;;;;5032178;28;20029;-73
2021/06/26 06:34:48;;;;;;;32.85;24.88;;;15.90;99.90;;;;;;5037273;28;20033;-73
2021/06/26 06:37:15;;;;;;;30.50;24.65;;;16.00;99.90;;;;;;5037374;28;20112;-73
2021/06/26 06:39:40;;;;;;;29.48;24.10;;;16.00;99.90;;;;;;5007458;28;20033;-73
2021/06/26 06:42:09;;;;;;;30.02;24.30;;;16.10;99.90;;;;;;5033726;28;20025;-72
2021/06/26 06:44:39;;;;;;;34.40;27.33;;;16.10;99.90;;;;;;5037978;28;20035;-72
2021/06/26 06:47:04;;;;;;;32.17;25.55;;;16.20;99.90;;;;;;5044578;28;20405;-74
2021/06/26 06:49:30;;;;;;;29.63;24.40;;;16.20;99.90;;;;;;5036363;28;20627;-73
2021/06/26 06:52:00;;;;;;;29.10;23.60;;;16.30;99.90;;;;;;5023191;28;20029;-71
2021/06/26 06:54:28;;;;;;;28.05;22.45;;;16.40;99.90;;;;;;5042112;28;20031;-72
2021/06/26 06:56:59;;;;;;;29.27;22.88;;;16.40;99.90;;;;;;5031779;28;20577;-71
2021/06/26 06:59:24;;;;;;;30.85;25.35;;;16.50;99.90;;;;;;5041389;28;20029;-72
2021/06/26 07:01:50;;;;;;;31.45;25.15;;;16.60;99.90;;;;;;5036703;28;20711;-72
2021/06/26 07:04:16;;;;;;;30.67;25.27;;;16.60;99.90;;;;;;5040909;28;20056;-71
2021/06/26 07:06:46;;;;;;;36.42;25.73;;;16.70;99.90;;;;;;5040094;28;20042;-72
2021/06/26 07:09:12;;;;;;;30.05;24.73;;;16.80;99.90;;;;;;5028953;28;20025;-72
2021/06/26 07:11:42;;;;;;;28.30;23.65;;;16.80;99.90;;;;;;5037956;28;20033;-72
2021/06/26 07:14:08;;;;;;;34.33;23.05;;;16.90;99.90;;;;;;5039135;28;20040;-72
2021/06/26 07:16:35;;;;;;;30.23;23.90;;;16.90;99.90;;;;;;5040028;28;20032;-72
2021/06/26 07:19:03;;;;;;;28.60;23.27;;;17.00;99.90;;;;;;5041917;28;20406;-72
2021/06/26 07:21:31;;;;;;;32.97;25.23;;;17.10;99.90;;;;;;5040156;28;20050;-72
2021/06/26 07:24:01;;;;;;;32.05;25.60;;;17.20;99.90;;;;;;5038757;28;20523;-72
2021/06/26 07:26:26;;;;;;;27.70;22.70;;;17.20;99.90;;;;;;5042700;28;20454;-72
2021/06/26 07:28:54;;;;;;;28.90;21.13;;;17.30;99.90;;;;;;5042307;28;20022;-72
2021/06/26 07:31:20;;;;;;;24.30;20.73;;;17.40;99.90;;;;;;5038716;28;20025;-72
2021/06/26 07:33:45;;;;;;;25.67;20.35;;;17.40;99.90;;;;;;5040937;28;20048;-72
2021/06/26 07:36:13;;;;;;;23.70;20.08;;;17.50;99.90;;;;;;5037849;28;20029;-72
2021/06/26 07:38:39;;;;;;;27.73;22.13;;;17.60;99.90;;;;;;5039201;28;20492;-72
2021/06/26 07:41:05;;;;;;;32.03;24.02;;;17.70;99.90;;;;;;5040457;28;20021;-71
2021/06/26 07:43:30;;;;;;;24.55;21.73;;;17.90;99.90;;;;;;5041201;28;20035;-72
2021/06/26 07:45:56;;;;;;;27.15;21.73;;;18.10;99.90;;;;;;5040976;28;20060;-72
2021/06/26 07:48:24;;;;;;;25.45;20.85;;;18.30;99.90;;;;;;5020181;28;20044;-72
2021/06/26 07:50:51;;;;;;;22.67;20.17;;;18.50;99.90;;;;;;5041087;28;20068;-71
2021/06/26 07:53:19;;;;;;;22.85;18.30;;;18.70;99.90;;;;;;5041142;28;20039;-73
2021/06/26 07:55:51;;;;;;;26.70;20.02;;;18.90;99.90;;;;;;5036493;28;20036;-73
2021/06/26 07:58:21;;;;;;;28.95;25.08;;;19.10;99.90;;;;;;5036774;28;20450;-72
2021/06/26 08:00:49;;;;;;;23.20;18.10;;;19.40;99.90;;;;;;5038134;28;20024;-72
2021/06/26 08:03:16;;;;;;;17.48;15.60;;;19.60;99.90;;;;;;5022481;28;20553;-72
2021/06/26 08:05:42;;;;;;;18.75;16.77;;;19.80;99.90;;;;;;5038764;28;20044;-72
2021/06/26 08:08:07;;;;;;;18.65;15.88;;;19.90;99.90;;;;;;5027038;28;20058;-72
2021/06/26 08:10:36;;;;;;;18.00;15.60;;;20.10;99.90;;;;;;5040340;28;20037;-72
2021/06/26 08:13:01;;;;;;;17.15;15.10;;;20.30;99.90;;;;;;5043755;28;20039;-72
2021/06/26 08:15:30;;;;;;;19.55;14.48;;;20.40;99.90;;;;;;5036908;28;20152;-72
2021/06/26 08:17:58;;;;;;;16.65;14.95;;;20.60;99.90;;;;;;5039392;28;20070;-72
2021/06/26 08:20:26;;;;;;;20.15;17.30;;;20.80;99.90;;;;;;5038286;28;20013;-72
2021/06/26 08:22:54;;;;;;;20.45;17.02;;;20.80;99.90;;;;;;5038987;28;20033;-72
2021/06/26 08:25:20;;;;;;;17.15;15.35;;;20.90;99.90;;;;;;5036458;28;20049;-72
2021/06/26 08:27:46;;;;;;;16.65;14.02;;;20.90;99.90;;;;;;5038905;28;20025;-72
2021/06/26 08:30:12;;;;;;;17.77;14.25;;;21.10;99.90;;;;;;5040862;28;20159;-72
2021/06/26 08:32:42;;;;;;;13.50;12.10;;;21.20;99.90;;;;;;5039643;28;20040;-72
2021/06/26 08:35:10;;;;;;;14.77;13.25;;;21.40;99.90;;;;;;5042566;28;20047;-75
2021/06/26 08:37:42;;;;;;;16.00;13.00;;;21.40;99.90;;;;;;5042628;28;20025;-74
2021/06/26 08:40:10;;;;;;;14.40;12.05;;;21.40;99.90;;;;;;5040013;28;20029;-71
2021/06/26 08:42:36;;;;;;;12.48;11.18;;;21.50;99.90;;;;;;5041612;28;20084;-71
2021/06/26 08:45:07;;;;;;;12.70;11.25;;;21.60;99.90;;;;;;5043557;28;20064;-72
2021/06/26 08:47:35;;;;;;;13.50;9.93;;;21.60;99.90;;;;;;5042298;28;20020;-71
2021/06/26 08:50:01;;;;;;;13.45;11.48;;;21.70;99.90;;;;;;5043344;28;20270;-72
2021/06/26 08:52:29;;;;;;;14.70;11.02;;;21.70;99.90;;;;;;5030736;28;20035;-72
2021/06/26 08:54:55;;;;;;;13.00;10.35;;;21.70;99.90;;;;;;5041021;28;20379;-72
2021/06/26 08:57:30;;;;;;;15.38;10.70;;;21.70;99.90;;;;;;5043780;28;20057;-72
2021/06/26 08:59:58;;;;;;;12.40;9.88;;;21.60;99.90;;;;;;5040439;28;20033;-72
2021/06/26 09:02:24;;;;;;;13.82;10.13;;;21.60;99.90;;;;;;5040332;28;20155;-72
2021/06/26 09:04:52;;;;;;;11.80;9.82;;;21.70;99.90;;;;;;5030123;28;20168;-73
2021/06/26 09:07:52;;;;;;;10.27;8.30;;;21.70;99.90;;;;;;5026718;28;20037;-73
2021/06/26 09:10:22;;;;;;;14.80;12.45;;;21.80;94.60;;;;;;5035104;28;20045;-72
2021/06/26 09:12:51;;;;;;;13.13;9.90;;;21.80;99.90;;;;;;4342300;28;10000749;-72
2021/06/26 09:15:24;;;;;;;12.52;9.40;;;21.80;99.90;;;;;;5040046;28;20017;-73
2021/06/26 09:17:52;;;;;;;11.75;8.27;;;21.90;99.90;;;;;;4693170;28;10000753;-72
2021/06/26 09:20:22;;;;;;;12.63;8.05;;;22.00;99.90;;;;;;5041705;28;20057;-72
2021/06/26 09:22:52;;;;;;;10.45;7.45;;;22.00;99.90;;;;;;5037537;28;20033;-72
2021/06/26 09:25:32;;;;;;;9.95;7.20;;;22.10;99.90;;;;;;5038188;28;20049;-73
2021/06/26 09:28:02;;;;;;;11.73;7.80;;;22.10;99.30;;;;;;5035568;28;20040;-73
2021/06/26 09:30:56;;;;;;;9.13;7.45;;;22.00;91.60;;;;;;5039867;28;20039;-73
2021/06/26 09:33:24;;;;;;;10.70;7.43;;;21.90;96.20;;;;;;5037204;28;20052;-73
2021/06/26 09:36:19;;;;;;;8.82;6.97;;;21.90;99.60;;;;;;5027040;28;20061;-72
2021/06/26 09:38:56;;;;;;;11.07;8.00;;;22.00;99.90;;;;;;5035186;28;20060;-72
2021/06/26 09:41:21;;;;;;;9.70;7.55;;;21.80;91.60;;;;;;5037123;28;20025;-72
2021/06/26 09:43:47;;;;;;;10.80;8.10;;;21.90;99.60;;;;;;5038315;28;20037;-71
2021/06/26 09:46:14;;;;;;;11.30;7.50;;;21.90;92.30;;;;;;5036775;28;20025;-72
2021/06/26 09:48:59;;;;;;;8.52;6.57;;;21.90;98.30;;;;;;4689060;28;10000177;-72
2021/06/26 09:51:29;;;;;;;8.93;6.47;;;22.00;99.90;;;;;;5043641;28;20488;-71
2021/06/26 09:54:08;;;;;;;10.23;7.80;;;22.10;99.90;;;;;;5024571;28;20389;-71
2021/06/26 09:56:39;;;;;;;8.52;7.03;;;22.10;99.90;;;;;;5037484;28;20029;-72
2021/06/26 09:59:05;;;;;;;;;;;22.10;99.90;;;;;;5042136;28;20076;-72
2021/06/26 10:01:36;;;;;;;8.93;6.70;;;22.10;99.90;;;;;;5047021;28;19917;-71
2021/06/26 10:04:09;;;;;;;13.17;7.03;;;22.10;99.80;;;;;;5038806;28;20021;-72
2021/06/26 10:06:34;;;;;;;10.10;7.38;;;22.20;99.90;;;;;;5038205;28;20033;-72
2021/06/26 10:09:06;;;;;;;11.63;7.38;;;22.20;98.60;;;;;;5032198;28;20092;-72
2021/06/26 10:11:33;;;;;;;12.18;7.15;;;22.30;99.20;;;;;;5043954;28;20114;-71
2021/06/26 10:14:07;;;;;;;9.85;6.57;;;22.30;99.90;;;;;;5042704;28;20463;-71
2021/06/26 10:16:32;;;;;;;11.52;7.45;;;22.30;95.60;;;;;;5042744;28;20344;-71
2021/06/26 10:19:03;;;;;;;8.40;6.63;;;22.30;96.60;;;;;;5043298;28;20047;-71
2021/06/26 10:21:32;;;;;;;8.13;6.22;;;22.30;96.70;;;;;;5043632;28;20021;-71
2021/06/26 10:23:58;;;;;;;7.07;5.88;;;22.30;90.50;;;;;;5041343;28;20541;-72
2021/06/26 10:26:24;;;;;;;6.63;5.60;;;22.30;98.40;;;;;;5039245;28;20037;-72
2021/06/26 10:28:50;;;;;;;9.27;7.22;;;22.30;94.40;;;;;;5042797;28;20029;-71
2021/06/26 10:31:38;;;;;;;8.25;6.60;;;22.40;86.40;;;;;;5041818;28;20036;-73
2021/06/26 10:34:39;;;;;;;9.48;7.35;;;22.40;90.70;;;;;;5043065;28;20091;-73
2021/06/26 10:37:13;;;;;;;8.40;7.50;;;22.50;80.10;;;;;;5044118;28;20021;-71
2021/06/26 10:39:38;;;;;;;7.85;6.50;;;22.60;92.60;;;;;;5040328;28;20470;-72
2021/06/26 10:42:15;;;;;;;11.20;6.45;;;22.60;84.10;;;;;;5041173;28;20108;-72
2021/06/26 10:44:49;;;;;;;7.03;6.10;;;22.70;86.70;;;;;;5039829;28;20040;-72
2021/06/26 10:47:20;;;;;;;8.63;6.78;;;22.70;90.70;;;;;;5032189;28;20021;-73
2021/06/26 10:49:46;;;;;;;8.70;7.13;;;22.70;87.20;;;;;;5041542;28;20021;-73
2021/06/26 10:52:21;;;;;;;8.15;7.03;;;22.70;82.50;;;;;;5028918;28;20031;-72
2021/06/26 10:54:54;;;;;;;8.38;6.95;;;22.80;81.40;;;;;;5024490;28;20155;-73
2021/06/26 10:57:20;;;;;;;11.02;7.80;;;22.80;79.20;;;;;;5039634;28;20061;-74
2021/06/26 11:00:02;;;;;;;10.20;8.40;;;22.80;91.20;;;;;;5040132;28;20087;-77
2021/06/26 11:02:43;;;;;;;10.57;7.50;;;22.90;86.10;;;;;;5024393;28;20081;-74
2021/06/26 11:05:15;;;;;;;8.15;7.32;;;23.00;86.20;;;;;;5042657;28;20021;-75
2021/06/26 11:07:45;;;;;;;8.80;7.00;;;23.00;84.90;;;;;;5042335;28;20035;-74
2021/06/26 11:10:13;;;;;;;10.32;6.97;;;23.20;90.50;;;;;;5038805;28;20029;-74
2021/06/26 11:12:46;;;;;;;9.07;7.10;;;23.10;78.70;;;;;;5042385;28;20025;-73
2021/06/26 11:15:12;;;;;;;8.65;7.45;;;23.10;70.90;;;;;;5039962;28;20028;-74
2021/06/26 11:17:45;;;;;;;8.18;7.10;;;23.10;77.30;;;;;;5040908;28;20033;-74
2021/06/26 11:20:15;;;;;;;10.60;7.15;;;23.30;81.20;;;;;;5046618;28;20490;-75
2021/06/26 11:22:57;;;;;;;10.20;6.63;;;23.40;89.20;;;;;;5039457;28;20496;-77
2021/06/26 11:25:29;;;;;;;10.15;6.93;;;23.50;92.40;;;;;;5041880;28;20163;-74
2021/06/26 11:28:15;;;;;;;9.68;7.22;;;23.60;86.40;;;;;;5045484;28;20107;-74
2021/06/26 11:30:46;;;;;;;8.40;7.05;;;23.70;72.50;;;;;;5044848;28;20120;-72
2021/06/26 11:33:14;;;;;;;8.07;6.57;;;23.70;75.70;;;;;;5026587;28;20079;-73
2021/06/26 11:35:43;;;;;;;8.57;6.60;;;23.80;82.10;;;;;;5038891;28;20033;-72
2021/06/26 11:38:16;;;;;;;9.90;6.82;;;23.80;82.60;;;;;;5038191;28;20021;-72
2021/06/26 11:40:44;;;;;;;7.88;6.30;;;24.00;84.40;;;;;;5039642;28;20111;-72
2021/06/26 11:43:10;;;;;;;9.73;6.80;;;24.10;83.00;;;;;;5043454;28;20025;-73
2021/06/26 11:45:40;;;;;;;8.07;6.65;;;24.10;77.40;;;;;;5042108;28;20036;-72
2021/06/26 11:48:14;;;;;;;8.45;6.45;;;24.30;82.70;;;;;;5039036;28;20494;-72
2021/06/26 11:50:51;;;;;;;8.07;6.97;;;24.30;74.70;;;;;;5042282;28;20026;-74
2021/06/26 11:53:18;;;;;;;8.70;6.35;;;24.20;75.10;;;;;;5040126;28;20021;-72
2021/06/26 11:56:04;;;;;;;7.95;5.95;;;24.30;82.70;;;;;;5037070;28;20017;-72
2021/06/26 11:58:44;;;;;;;7.93;6.05;;;24.30;73.10;;;;;;5019389;28;20117;-72
2021/06/26 12:01:14;;;;;;;8.90;6.47;;;24.10;69.80;;;;;;5037422;28;20029;-72
2021/06/26 12:03:40;;;;;;;8.25;5.85;;;24.40;89.10;;;;;;5039216;28;20379;-72
2021/06/26 12:06:13;;;;;;;6.93;6.05;;;24.40;82.10;;;;;;5039930;28;20051;-72
2021/06/26 12:08:45;;;;;;;7.72;5.57;;;24.60;86.70;;;;;;5040578;28;20025;-72
2021/06/26 12:11:21;;;;;;;8.70;5.60;;;24.80;81.30;;;;;;5028950;28;20458;-72
2021/06/26 12:13:50;;;;;;;8.15;5.65;;;25.00;83.60;;;;;;5048816;28;20037;-73
2021/06/26 12:16:25;;;;;;;7.40;5.57;;;25.00;75.50;;;;;;5041143;28;20425;-71
2021/06/26 12:18:58;;;;;;;7.30;5.90;;;25.10;79.10;;;;;;5046055;28;20021;-72
2021/06/26 12:21:48;;;;;;;11.95;6.63;;;25.20;81.10;;;;;;5045293;28;20447;-72
2021/06/26 12:24:44;;;;;;;9.80;5.28;;;25.30;82.50;;;;;;5044683;28;20049;-71
2021/06/26 12:27:11;;;;;;;6.88;5.22;;;25.20;65.20;;;;;;5044027;28;20512;-72
2021/06/26 12:29:37;;;;;;;8.38;5.35;;;25.30;69.90;;;;;;5046770;28;20124;-72
2021/06/26 12:32:08;;;;;;;6.90;6.07;;;25.30;74.20;;;;;;5041490;28;20340;-72
2021/06/26 12:34:44;;;;;;;7.53;5.90;;;25.30;70.40;;;;;;5039708;28;20040;-72
2021/06/26 12:37:09;;;;;;;7.13;5.32;;;25.30;70.10;;;;;;5040687;28;20041;-73
2021/06/26 12:39:35;;;;;;;7.95;5.80;;;25.20;75.90;;;;;;5044256;28;20092;-72
2021/06/26 12:42:06;;;;;;;10.65;6.22;;;25.40;81.00;;;;;;5044687;28;20116;-72
2021/06/26 12:44:34;;;;;;;16.63;6.30;;;25.30;81.40;;;;;;5042048;28;20025;-72
2021/06/26 12:46:59;;;;;;;7.10;5.70;;;25.40;80.10;;;;;;5042491;28;20029;-72